| time (UTC) | temp C | wind direction | speed KPH | gust KPH | rain 1hr cm | rain 24hr cm | rain mn cm | humidity % | barometer mb |
| 20260509122621 | 9 | 324 | 0.0 | 0.0 | 0.00 | 0.00 | 0.00 | 94 | 1022.3 |
| 20260509122119 | 10 | 303 | 0.0 | 0.0 | 0.00 | 0.00 | 0.00 | 94 | 1022.3 |
| 20260509121615 | 10 | 303 | 0.0 | 0.0 | 0.00 | 0.00 | 0.00 | 94 | 1022.5 |
| 20260509121113 | 10 | 296 | 0.0 | 0.0 | 0.00 | 0.00 | 0.00 | 94 | 1022.5 |
| 20260509120611 | 10 | 287 | 0.0 | 0.0 | 0.00 | 0.00 | 0.00 | 94 | 1022.4 |
| 20260509120109 | 10 | 280 | 0.0 | 0.0 | 0.00 | 0.00 | 0.00 | 93 | 1022.4 |
| 20260509115606 | 10 | 279 | 0.0 | 0.0 | 0.00 | 0.00 | 0.00 | 93 | 1022.5 |
| 20260509115103 | 10 | 277 | 0.0 | 0.0 | 0.00 | 0.00 | 0.00 | 93 | 1022.2 |
| 20260509114601 | 10 | 274 | 0.0 | 0.0 | 0.00 | 0.00 | 0.00 | 93 | 1022.7 |
| 20260509114100 | 10 | 275 | 1.6 | 1.6 | 0.00 | 0.00 | 0.00 | 93 | 1022.5 |
| 20260509113558 | 10 | 265 | 3.2 | 3.2 | 0.00 | 0.00 | 0.00 | 93 | 1022.6 |
| 20260509113055 | 10 | 271 | 1.6 | 3.2 | 0.00 | 0.00 | 0.00 | 93 | 1022.5 |
| 20260509112551 | 10 | 272 | 3.2 | 3.2 | 0.00 | 0.00 | 0.00 | 93 | 1022.4 |
| 20260509112049 | 10 | 272 | 0.0 | 0.0 | 0.00 | 0.00 | 0.00 | 93 | 1022.5 |
| 20260509111546 | 10 | 279 | 0.0 | 0.0 | 0.00 | 0.00 | 0.00 | 92 | 1022.4 |
| 20260509111043 | 10 | 289 | 0.0 | 0.0 | 0.00 | 0.00 | 0.00 | 92 | 1022.5 |
| 20260509110540 | 10 | 291 | 0.0 | 0.0 | 0.00 | 0.00 | 0.00 | 92 | 1022.8 |
| 20260509110037 | 10 | 281 | 0.0 | 0.0 | 0.00 | 0.00 | 0.00 | 92 | 1022.6 |
| 20260509105535 | 10 | 275 | 0.0 | 0.0 | 0.00 | 0.00 | 0.00 | 91 | 1022.7 |
| 20260509105032 | 10 | 274 | 0.0 | 0.0 | 0.00 | 0.00 | 0.00 | 91 | 1022.6 |
| 20260509104529 | 10 | 274 | 0.0 | 0.0 | 0.00 | 0.00 | 0.00 | 91 | 1022.7 |
| 20260509104026 | 10 | 255 | 0.0 | 0.0 | 0.00 | 0.00 | 0.00 | 91 | 1022.7 |
| 20260509103523 | 10 | 250 | 0.0 | 0.0 | 0.00 | 0.00 | 0.00 | 90 | 1022.8 |
| 20260509103021 | 11 | 212 | 1.6 | 3.2 | 0.00 | 0.00 | 0.00 | 90 | 1022.7 |
| 20260509102518 | 11 | 197 | 4.8 | 4.8 | 0.00 | 0.00 | 0.00 | 90 | 1022.8 |
| 20260509102015 | 11 | 198 | 4.8 | 4.8 | 0.00 | 0.00 | 0.00 | 90 | 1022.9 |
| 20260509101512 | 11 | 223 | 1.6 | 1.6 | 0.00 | 0.00 | 0.00 | 90 | 1022.9 |
| 20260509101009 | 11 | 195 | 3.2 | 3.2 | 0.00 | 0.00 | 0.00 | 90 | 1022.7 |
| 20260509100506 | 11 | 203 | 6.4 | 8.0 | 0.00 | 0.00 | 0.00 | 89 | 1022.8 |
| 20260509100003 | 11 | 192 | 9.7 | 11.3 | 0.00 | 0.00 | 0.00 | 89 | 1022.9 |
| 20260509095459 | 11 | 166 | 4.8 | 4.8 | 0.00 | 0.00 | 0.00 | 89 | 1022.9 |
| 20260509094957 | 11 | 201 | 4.8 | 8.0 | 0.00 | 0.00 | 0.00 | 88 | 1022.9 |
| 20260509094453 | 11 | 216 | 4.8 | 4.8 | 0.00 | 0.00 | 0.00 | 88 | 1022.8 |
| 20260509093950 | 11 | 191 | 6.4 | 8.0 | 0.00 | 0.00 | 0.00 | 88 | 1022.7 |
| 20260509093449 | 11 | 165 | 8.0 | 11.3 | 0.00 | 0.00 | 0.00 | 87 | 1023.0 |
| 20260509092946 | 11 | 203 | 3.2 | 4.8 | 0.00 | 0.00 | 0.00 | 87 | 1022.9 |
| 20260509092444 | 11 | 209 | 4.8 | 4.8 | 0.00 | 0.00 | 0.00 | 87 | 1022.9 |
| 20260509091942 | 11 | 196 | 3.2 | 3.2 | 0.00 | 0.00 | 0.00 | 87 | 1023.0 |
| 20260509091438 | 11 | 169 | 4.8 | 4.8 | 0.00 | 0.00 | 0.00 | 87 | 1022.8 |
| 20260509090936 | 11 | 166 | 6.4 | 8.0 | 0.00 | 0.00 | 0.00 | 87 | 1023.0 |
| 20260509090433 | 11 | 211 | 3.2 | 4.8 | 0.00 | 0.00 | 0.00 | 87 | 1022.9 |
| 20260509085931 | 11 | 218 | 8.0 | 9.7 | 0.00 | 0.00 | 0.00 | 87 | 1022.9 |
| 20260509085427 | 11 | 219 | 3.2 | 3.2 | 0.00 | 0.00 | 0.00 | 87 | 1022.9 |
| 20260509084923 | 11 | 225 | 4.8 | 8.0 | 0.00 | 0.00 | 0.00 | 87 | 1023.1 |
| 20260509084420 | 11 | 267 | 0.0 | 0.0 | 0.00 | 0.00 | 0.00 | 87 | 1023.0 |
| 20260509083918 | 11 | 258 | 0.0 | 1.6 | 0.00 | 0.00 | 0.00 | 87 | 1023.0 |
| 20260509083415 | 11 | 212 | 1.6 | 3.2 | 0.00 | 0.00 | 0.00 | 87 | 1023.1 |
| 20260509082912 | 11 | 230 | 0.0 | 0.0 | 0.00 | 0.00 | 0.00 | 87 | 1023.0 |
| 20260509082409 | 11 | 195 | 4.8 | 8.0 | 0.00 | 0.00 | 0.00 | 87 | 1023.1 |
| 20260509081905 | 11 | 198 | 4.8 | 8.0 | 0.00 | 0.00 | 0.00 | 87 | 1023.2 |
| 20260509081403 | 11 | 216 | 6.4 | 8.0 | 0.00 | 0.00 | 0.00 | 87 | 1022.9 |
| 20260509080900 | 11 | 232 | 4.8 | 8.0 | 0.00 | 0.00 | 0.00 | 87 | 1022.9 |
| 20260509080358 | 11 | 209 | 6.4 | 8.0 | 0.00 | 0.00 | 0.00 | 87 | 1022.8 |
| 20260509075856 | 11 | 209 | 8.0 | 9.7 | 0.00 | 0.00 | 0.00 | 86 | 1022.9 |
| 20260509075353 | 11 | 201 | 3.2 | 3.2 | 0.00 | 0.00 | 0.00 | 86 | 1023.0 |
| 20260509074850 | 11 | 216 | 3.2 | 3.2 | 0.00 | 0.00 | 0.00 | 86 | 1022.8 |
| 20260509074348 | 11 | 221 | 3.2 | 3.2 | 0.00 | 0.00 | 0.00 | 86 | 1022.9 |
| 20260509073844 | 11 | 229 | 1.6 | 3.2 | 0.00 | 0.00 | 0.00 | 86 | 1022.9 |
| 20260509073340 | 11 | 199 | 6.4 | 8.0 | 0.00 | 0.00 | 0.00 | 86 | 1023.0 |
| 20260509072837 | 11 | 224 | 1.6 | 1.6 | 0.00 | 0.00 | 0.00 | 86 | 1023.0 |
| 20260509072334 | 11 | 235 | 4.8 | 4.8 | 0.00 | 0.00 | 0.00 | 86 | 1022.9 |
| 20260509071830 | 11 | 226 | 0.0 | 0.0 | 0.00 | 0.00 | 0.00 | 85 | 1022.9 |
| 20260509071327 | 11 | 217 | 1.6 | 3.2 | 0.00 | 0.00 | 0.00 | 85 | 1022.9 |
| 20260509070825 | 11 | 216 | 0.0 | 0.0 | 0.00 | 0.00 | 0.00 | 85 | 1022.9 |
| 20260509070321 | 11 | 247 | 0.0 | 0.0 | 0.00 | 0.00 | 0.00 | 85 | 1023.0 |
| 20260509065818 | 11 | 261 | 0.0 | 0.0 | 0.00 | 0.00 | 0.00 | 85 | 1022.8 |
| 20260509065314 | 11 | 242 | 0.0 | 1.6 | 0.00 | 0.00 | 0.00 | 85 | 1022.6 |
| 20260509064810 | 11 | 246 | 0.0 | 1.6 | 0.00 | 0.00 | 0.00 | 85 | 1022.8 |
| 20260509064308 | 11 | 253 | 0.0 | 0.0 | 0.00 | 0.00 | 0.00 | 85 | 1022.6 |
| 20260509063805 | 11 | 262 | 0.0 | 0.0 | 0.00 | 0.00 | 0.00 | 85 | 1022.8 |
| 20260509063301 | 11 | 275 | 0.0 | 0.0 | 0.00 | 0.00 | 0.00 | 84 | 1022.7 |
| 20260509062758 | 11 | 270 | 0.0 | 0.0 | 0.00 | 0.00 | 0.00 | 84 | 1022.6 |
| 20260509062255 | 11 | 224 | 1.6 | 3.2 | 0.00 | 0.00 | 0.00 | 84 | 1022.6 |
| 20260509061752 | 11 | 259 | 0.0 | 1.6 | 0.00 | 0.00 | 0.00 | 83 | 1022.5 |
| 20260509061250 | 12 | 271 | 0.0 | 0.0 | 0.00 | 0.00 | 0.00 | 83 | 1022.4 |
| 20260509060747 | 12 | 245 | 1.6 | 1.6 | 0.00 | 0.00 | 0.00 | 83 | 1022.5 |
| 20260509060244 | 12 | 230 | 1.6 | 1.6 | 0.00 | 0.00 | 0.00 | 82 | 1022.5 |
| 20260509055739 | 12 | 240 | 0.0 | 0.0 | 0.00 | 0.00 | 0.00 | 82 | 1022.6 |
| 20260509055235 | 12 | 258 | 0.0 | 0.0 | 0.00 | 0.00 | 0.00 | 82 | 1022.6 |
| 20260509054732 | 12 | 259 | 0.0 | 0.0 | 0.00 | 0.00 | 0.00 | 82 | 1022.4 |
| 20260509054229 | 12 | 244 | 4.8 | 4.8 | 0.00 | 0.00 | 0.00 | 81 | 1022.4 |
| 20260509053728 | 12 | 254 | 1.6 | 3.2 | 0.00 | 0.00 | 0.00 | 81 | 1022.6 |
| 20260509053224 | 12 | 265 | 0.0 | 1.6 | 0.00 | 0.00 | 0.00 | 81 | 1022.6 |
| 20260509052722 | 12 | 218 | 8.0 | 11.3 | 0.00 | 0.00 | 0.00 | 80 | 1022.4 |
| 20260509052219 | 12 | 217 | 9.7 | 12.9 | 0.00 | 0.00 | 0.00 | 80 | 1022.7 |
| 20260509051717 | 12 | 271 | 0.0 | 1.6 | 0.00 | 0.00 | 0.00 | 80 | 1022.3 |
| 20260509051215 | 12 | 266 | 0.0 | 0.0 | 0.00 | 0.00 | 0.00 | 79 | 1022.3 |
| 20260509050711 | 12 | 241 | 0.0 | 0.0 | 0.00 | 0.00 | 0.00 | 79 | 1022.3 |
| 20260509050208 | 12 | 248 | 4.8 | 4.8 | 0.00 | 0.00 | 0.00 | 79 | 1022.4 |
| 20260509045705 | 12 | 215 | 4.8 | 4.8 | 0.00 | 0.00 | 0.00 | 79 | 1022.2 |
| 20260509045202 | 12 | 273 | 0.0 | 0.0 | 0.00 | 0.00 | 0.00 | 78 | 1022.2 |
| 20260509044659 | 12 | 268 | 0.0 | 0.0 | 0.00 | 0.00 | 0.00 | 78 | 1022.1 |
| 20260509044157 | 12 | 281 | 0.0 | 0.0 | 0.00 | 0.00 | 0.00 | 78 | 1022.2 |
| 20260509043653 | 12 | 301 | 0.0 | 0.0 | 0.00 | 0.00 | 0.00 | 77 | 1022.1 |
| 20260509043149 | 13 | 295 | 0.0 | 0.0 | 0.00 | 0.00 | 0.00 | 77 | 1021.9 |
| 20260509042646 | 13 | 290 | 0.0 | 0.0 | 0.00 | 0.00 | 0.00 | 76 | 1022.1 |
| 20260509042141 | 13 | 266 | 0.0 | 0.0 | 0.00 | 0.00 | 0.00 | 76 | 1022.2 |
| 20260509041638 | 13 | 273 | 0.0 | 0.0 | 0.00 | 0.00 | 0.00 | 75 | 1022.1 |
| 20260509041136 | 13 | 270 | 3.2 | 4.8 | 0.00 | 0.00 | 0.00 | 74 | 1022.1 |
| 20260509040634 | 13 | 254 | 1.6 | 1.6 | 0.00 | 0.00 | 0.00 | 74 | 1022.1 |
| 20260509040131 | 13 | 241 | 0.0 | 1.6 | 0.00 | 0.00 | 0.00 | 74 | 1021.8 |
| 20260509035627 | 13 | 230 | 1.6 | 3.2 | 0.00 | 0.00 | 0.00 | 74 | 1021.9 |
| 20260509035124 | 13 | 257 | 0.0 | 1.6 | 0.00 | 0.00 | 0.00 | 73 | 1021.9 |
| 20260509034622 | 13 | 261 | 0.0 | 0.0 | 0.00 | 0.00 | 0.00 | 73 | 1021.7 |
| 20260509034119 | 14 | 202 | 4.8 | 8.0 | 0.00 | 0.00 | 0.00 | 72 | 1021.7 |
| 20260509033616 | 14 | 241 | 1.6 | 4.8 | 0.00 | 0.00 | 0.00 | 72 | 1021.6 |
| 20260509033113 | 14 | 194 | 6.4 | 8.0 | 0.00 | 0.00 | 0.00 | 71 | 1021.6 |
| 20260509032610 | 14 | 177 | 3.2 | 3.2 | 0.00 | 0.00 | 0.00 | 71 | 1021.4 |
| 20260509032107 | 14 | 239 | 0.0 | 0.0 | 0.00 | 0.00 | 0.00 | 70 | 1021.6 |
| 20260509031605 | 15 | 211 | 8.0 | 9.7 | 0.00 | 0.00 | 0.00 | 69 | 1021.4 |
| 20260509031102 | 15 | 267 | 4.8 | 8.0 | 0.00 | 0.00 | 0.00 | 69 | 1021.3 |
| 20260509030600 | 15 | 178 | 4.8 | 4.8 | 0.00 | 0.00 | 0.00 | 68 | 1021.2 |
| 20260509030056 | 15 | 228 | 3.2 | 4.8 | 0.00 | 0.00 | 0.00 | 68 | 1021.2 |
| 20260509025553 | 15 | 247 | 6.4 | 8.0 | 0.00 | 0.00 | 0.00 | 67 | 1021.2 |
| 20260509025048 | 15 | 269 | 4.8 | 8.0 | 0.00 | 0.00 | 0.00 | 66 | 1021.1 |
| 20260509024544 | 15 | 185 | 11.3 | 12.9 | 0.00 | 0.00 | 0.00 | 65 | 1021.2 |
| 20260509024040 | 15 | 211 | 9.7 | 14.5 | 0.00 | 0.00 | 0.00 | 64 | 1021.1 |
| 20260509023538 | 15 | 214 | 4.8 | 4.8 | 0.00 | 0.00 | 0.00 | 63 | 1021.2 |
| 20260509023035 | 15 | 233 | 3.2 | 3.2 | 0.00 | 0.00 | 0.00 | 63 | 1021.2 |
| 20260509022532 | 15 | 212 | 6.4 | 12.9 | 0.00 | 0.00 | 0.00 | 63 | 1021.2 |
| 20260509022029 | 16 | 191 | 11.3 | 16.1 | 0.00 | 0.00 | 0.00 | 63 | 1021.2 |
| 20260509021526 | 16 | 250 | 4.8 | 9.7 | 0.00 | 0.00 | 0.00 | 63 | 1021.1 |
| 20260509021023 | 16 | 208 | 8.0 | 9.7 | 0.00 | 0.00 | 0.00 | 63 | 1021.4 |
| 20260509020522 | 16 | 186 | 9.7 | 11.3 | 0.00 | 0.00 | 0.00 | 63 | 1020.9 |
| 20260509020018 | 16 | 178 | 8.0 | 9.7 | 0.00 | 0.00 | 0.00 | 62 | 1021.1 |
| 20260509015517 | 16 | 191 | 3.2 | 3.2 | 0.00 | 0.00 | 0.00 | 62 | 1021.1 |
| 20260509015014 | 16 | 204 | 14.5 | 16.1 | 0.00 | 0.00 | 0.00 | 61 | 1020.9 |
| 20260509014511 | 16 | 194 | 9.7 | 11.3 | 0.00 | 0.00 | 0.00 | 60 | 1021.1 |
| 20260509014007 | 16 | 259 | 1.6 | 1.6 | 0.00 | 0.00 | 0.00 | 60 | 1021.1 |
| 20260509013504 | 16 | 200 | 14.5 | 16.1 | 0.00 | 0.00 | 0.00 | 60 | 1021.3 |
| 20260509012959 | 16 | 219 | 4.8 | 4.8 | 0.00 | 0.00 | 0.00 | 60 | 1021.0 |
| 20260509012456 | 16 | 180 | 9.7 | 12.9 | 0.00 | 0.00 | 0.00 | 60 | 1021.0 |
| 20260509011953 | 16 | 189 | 11.3 | 16.1 | 0.00 | 0.00 | 0.00 | 60 | 1021.0 |
| 20260509011451 | 17 | 160 | 16.1 | 20.9 | 0.00 | 0.00 | 0.00 | 58 | 1021.0 |
| 20260509010948 | 16 | 226 | 1.6 | 3.2 | 0.00 | 0.00 | 0.00 | 58 | 1021.3 |
| 20260509010446 | 16 | 275 | 9.7 | 12.9 | 0.00 | 0.00 | 0.00 | 58 | 1021.3 |
| 20260509005942 | 16 | 168 | 16.1 | 17.7 | 0.00 | 0.00 | 0.00 | 58 | 1021.2 |
| 20260509005441 | 16 | 205 | 4.8 | 4.8 | 0.00 | 0.00 | 0.00 | 56 | 1021.2 |
| 20260509004940 | 16 | 204 | 9.7 | 12.9 | 0.00 | 0.00 | 0.00 | 56 | 1021.4 |
| 20260509004437 | 16 | 178 | 12.9 | 14.5 | 0.00 | 0.00 | 0.00 | 58 | 1021.3 |
| 20260509003935 | 16 | 212 | 8.0 | 11.3 | 0.00 | 0.00 | 0.00 | 57 | 1021.3 |
| 20260509003433 | 16 | 195 | 14.5 | 16.1 | 0.00 | 0.00 | 0.00 | 57 | 1021.2 |
| 20260509002929 | 17 | 290 | 9.7 | 14.5 | 0.00 | 0.00 | 0.00 | 57 | 1021.2 |
| 20260509002427 | 16 | 206 | 9.7 | 11.3 | 0.00 | 0.00 | 0.00 | 57 | 1021.3 |
| 20260509001924 | 17 | 195 | 9.7 | 12.9 | 0.00 | 0.00 | 0.00 | 56 | 1021.3 |
| 20260509001421 | 17 | 218 | 16.1 | 17.7 | 0.00 | 0.00 | 0.00 | 57 | 1021.2 |
| 20260509000918 | 16 | 249 | 4.8 | 8.0 | 0.00 | 0.00 | 0.00 | 57 | 1021.4 |
| 20260509000418 | 16 | 288 | 9.7 | 14.5 | 0.00 | 0.00 | 0.00 | 57 | 1021.4 |
| 20260508235911 | 16 | 184 | 8.0 | 9.7 | 0.00 | 0.00 | 0.00 | 58 | 1021.2 |
| 20260508235409 | 17 | 246 | 8.0 | 12.9 | 0.00 | 0.00 | 0.00 | 55 | 1021.1 |
| 20260508234905 | 17 | 181 | 14.5 | 16.1 | 0.00 | 0.00 | 0.00 | 54 | 1021.1 |
| 20260508234402 | 17 | 282 | 1.6 | 3.2 | 0.00 | 0.00 | 0.00 | 55 | 1021.3 |
| 20260508233900 | 16 | 256 | 4.8 | 8.0 | 0.00 | 0.00 | 0.00 | 56 | 1021.2 |
| 20260508233400 | 16 | 204 | 14.5 | 17.7 | 0.00 | 0.00 | 0.00 | 55 | 1021.1 |
| 20260508232856 | 17 | 201 | 12.9 | 22.5 | 0.00 | 0.00 | 0.00 | 56 | 1021.1 |
| 20260508232352 | 16 | 171 | 11.3 | 14.5 | 0.00 | 0.00 | 0.00 | 56 | 1021.1 |
| 20260508231851 | 16 | 147 | 16.1 | 17.7 | 0.00 | 0.00 | 0.00 | 57 | 1021.1 |
| 20260508231346 | 16 | 222 | 11.3 | 12.9 | 0.00 | 0.00 | 0.00 | 57 | 1021.2 |
| 20260508230844 | 16 | 178 | 12.9 | 14.5 | 0.00 | 0.00 | 0.00 | 58 | 1021.1 |
| 20260508230340 | 16 | 272 | 1.6 | 4.8 | 0.00 | 0.00 | 0.00 | 57 | 1021.2 |
| 20260508225838 | 15 | 193 | 12.9 | 12.9 | 0.00 | 0.00 | 0.00 | 59 | 1021.3 |
| 20260508225334 | 16 | 188 | 12.9 | 14.5 | 0.00 | 0.00 | 0.00 | 59 | 1021.2 |
| 20260508224832 | 16 | 198 | 11.3 | 14.5 | 0.00 | 0.00 | 0.00 | 59 | 1021.2 |
| 20260508224330 | 16 | 202 | 11.3 | 14.5 | 0.00 | 0.00 | 0.00 | 60 | 1021.3 |
| 20260508223827 | 16 | 153 | 14.5 | 17.7 | 0.00 | 0.00 | 0.00 | 59 | 1021.3 |
| 20260508223324 | 15 | 183 | 14.5 | 16.1 | 0.00 | 0.00 | 0.00 | 60 | 1021.2 |
| 20260508222821 | 16 | 186 | 8.0 | 11.3 | 0.00 | 0.00 | 0.00 | 59 | 1021.3 |
| 20260508222318 | 15 | 184 | 9.7 | 11.3 | 0.00 | 0.00 | 0.00 | 61 | 1021.4 |
| 20260508221815 | 15 | 180 | 9.7 | 14.5 | 0.00 | 0.00 | 0.00 | 61 | 1021.2 |
| 20260508221310 | 15 | 165 | 11.3 | 14.5 | 0.00 | 0.00 | 0.00 | 62 | 1021.4 |
| 20260508220807 | 15 | 203 | 3.2 | 9.7 | 0.00 | 0.00 | 0.00 | 62 | 1021.3 |
| 20260508220304 | 15 | 218 | 4.8 | 8.0 | 0.00 | 0.00 | 0.00 | 60 | 1021.2 |
| 20260508215800 | 15 | 197 | 9.7 | 11.3 | 0.00 | 0.00 | 0.00 | 62 | 1021.4 |
| 20260508215257 | 15 | 181 | 14.5 | 16.1 | 0.00 | 0.00 | 0.00 | 62 | 1021.2 |
| 20260508214754 | 15 | 278 | 4.8 | 4.8 | 0.00 | 0.00 | 0.00 | 62 | 1021.0 |
| 20260508214251 | 14 | 231 | 4.8 | 8.0 | 0.00 | 0.00 | 0.00 | 64 | 1021.3 |
| 20260508213748 | 15 | 185 | 9.7 | 11.3 | 0.00 | 0.00 | 0.00 | 63 | 1021.2 |
| 20260508213244 | 15 | 148 | 6.4 | 8.0 | 0.00 | 0.00 | 0.00 | 63 | 1021.3 |
| 20260508212741 | 15 | 187 | 9.7 | 12.9 | 0.00 | 0.00 | 0.00 | 64 | 1021.4 |
| 20260508212237 | 14 | 194 | 20.9 | 24.1 | 0.00 | 0.00 | 0.00 | 65 | 1021.3 |
| 20260508211733 | 15 | 218 | 6.4 | 8.0 | 0.00 | 0.00 | 0.00 | 63 | 1021.3 |
| 20260508211229 | 14 | 248 | 8.0 | 11.3 | 0.00 | 0.00 | 0.00 | 64 | 1021.3 |
| 20260508210727 | 14 | 179 | 9.7 | 14.5 | 0.00 | 0.00 | 0.00 | 65 | 1021.3 |
| 20260508210223 | 13 | 125 | 8.0 | 11.3 | 0.00 | 0.00 | 0.00 | 66 | 1021.4 |
| 20260508205720 | 14 | 136 | 14.5 | 16.1 | 0.00 | 0.00 | 0.00 | 64 | 1021.2 |
| 20260508205217 | 15 | 206 | 9.7 | 14.5 | 0.00 | 0.00 | 0.00 | 65 | 1021.3 |
| 20260508204713 | 14 | 164 | 11.3 | 14.5 | 0.00 | 0.00 | 0.00 | 64 | 1021.3 |
| 20260508204210 | 14 | 212 | 8.0 | 9.7 | 0.00 | 0.00 | 0.00 | 66 | 1021.4 |
| 20260508203706 | 13 | 177 | 9.7 | 12.9 | 0.00 | 0.00 | 0.00 | 66 | 1021.3 |
| 20260508203202 | 13 | 200 | 8.0 | 9.7 | 0.00 | 0.00 | 0.00 | 67 | 1021.3 |
| 20260508202658 | 13 | 172 | 14.5 | 16.1 | 0.00 | 0.00 | 0.00 | 67 | 1021.2 |
| 20260508202155 | 13 | 173 | 8.0 | 8.0 | 0.00 | 0.00 | 0.00 | 67 | 1021.2 |
| 20260508201652 | 13 | 250 | 3.2 | 4.8 | 0.00 | 0.00 | 0.00 | 68 | 1021.1 |
| 20260508201149 | 13 | 243 | 4.8 | 8.0 | 0.00 | 0.00 | 0.00 | 67 | 1021.2 |
| 20260508200646 | 13 | 189 | 3.2 | 8.0 | 0.00 | 0.00 | 0.00 | 68 | 1021.3 |
| 20260508200142 | 13 | 217 | 8.0 | 9.7 | 0.00 | 0.00 | 0.00 | 68 | 1021.3 |
| 20260508195638 | 13 | 202 | 12.9 | 16.1 | 0.00 | 0.00 | 0.00 | 69 | 1021.2 |
| 20260508195135 | 13 | 229 | 14.5 | 17.7 | 0.00 | 0.00 | 0.00 | 68 | 1021.2 |
| 20260508194631 | 13 | 256 | 4.8 | 9.7 | 0.00 | 0.00 | 0.00 | 69 | 1021.0 |
| 20260508194128 | 13 | 197 | 6.4 | 8.0 | 0.00 | 0.00 | 0.00 | 66 | 1021.0 |
| 20260508193625 | 13 | 214 | 9.7 | 12.9 | 0.00 | 0.00 | 0.00 | 68 | 1020.9 |
| 20260508193122 | 13 | 193 | 8.0 | 14.5 | 0.00 | 0.00 | 0.00 | 66 | 1021.1 |
| 20260508192619 | 12 | 204 | 3.2 | 4.8 | 0.00 | 0.00 | 0.00 | 68 | 1021.2 |
| 20260508192116 | 13 | 192 | 9.7 | 11.3 | 0.00 | 0.00 | 0.00 | 67 | 1021.0 |
| 20260508191613 | 13 | 244 | 9.7 | 12.9 | 0.00 | 0.00 | 0.00 | 67 | 1020.9 |
| 20260508191109 | 13 | 229 | 8.0 | 12.9 | 0.00 | 0.00 | 0.00 | 67 | 1021.0 |
| 20260508190607 | 12 | 226 | 9.7 | 12.9 | 0.00 | 0.00 | 0.00 | 68 | 1020.9 |
| 20260508190103 | 12 | 205 | 8.0 | 12.9 | 0.00 | 0.00 | 0.00 | 69 | 1021.0 |
| 20260508185600 | 12 | 182 | 20.9 | 24.1 | 0.00 | 0.00 | 0.00 | 69 | 1020.9 |
| 20260508185057 | 12 | 216 | 11.3 | 16.1 | 0.00 | 0.00 | 0.00 | 70 | 1021.0 |
| 20260508184555 | 12 | 214 | 27.4 | 33.8 | 0.00 | 0.00 | 0.00 | 69 | 1020.9 |
| 20260508184051 | 12 | 193 | 6.4 | 9.7 | 0.00 | 0.00 | 0.00 | 70 | 1020.9 |
| 20260508183548 | 12 | 183 | 6.4 | 11.3 | 0.00 | 0.00 | 0.00 | 69 | 1020.8 |
| 20260508183043 | 12 | 184 | 17.7 | 22.5 | 0.00 | 0.00 | 0.00 | 70 | 1021.0 |
| 20260508182535 | 12 | 192 | 8.0 | 12.9 | 0.00 | 0.00 | 0.00 | 70 | 1020.9 |
| 20260508182032 | 12 | 177 | 17.7 | 22.5 | 0.00 | 0.00 | 0.00 | 71 | 1020.6 |
| 20260508181527 | 12 | 236 | 9.7 | 12.9 | 0.00 | 0.00 | 0.00 | 71 | 1020.6 |
| 20260508181025 | 12 | 252 | 9.7 | 11.3 | 0.00 | 0.00 | 0.00 | 71 | 1020.4 |
| 20260508180521 | 12 | 177 | 11.3 | 12.9 | 0.00 | 0.00 | 0.00 | 70 | 1020.5 |
| 20260508180018 | 12 | 173 | 9.7 | 14.5 | 0.00 | 0.00 | 0.00 | 71 | 1020.4 |
| 20260508175514 | 12 | 201 | 14.5 | 20.9 | 0.00 | 0.00 | 0.00 | 71 | 1020.5 |
| 20260508175012 | 12 | 210 | 6.4 | 9.7 | 0.00 | 0.00 | 0.00 | 73 | 1020.4 |
| 20260508174509 | 12 | 180 | 14.5 | 17.7 | 0.00 | 0.00 | 0.00 | 72 | 1020.2 |
| 20260508174006 | 12 | 222 | 11.3 | 16.1 | 0.00 | 0.00 | 0.00 | 73 | 1020.4 |
| 20260508173503 | 12 | 223 | 8.0 | 11.3 | 0.00 | 0.00 | 0.00 | 74 | 1020.2 |
| 20260508172959 | 12 | 181 | 4.8 | 8.0 | 0.00 | 0.00 | 0.00 | 74 | 1020.2 |
| 20260508172456 | 11 | 226 | 9.7 | 12.9 | 0.00 | 0.00 | 0.00 | 74 | 1019.9 |
| 20260508171952 | 12 | 209 | 8.0 | 11.3 | 0.00 | 0.00 | 0.00 | 74 | 1020.0 |
| 20260508171449 | 12 | 161 | 9.7 | 14.5 | 0.00 | 0.00 | 0.00 | 74 | 1019.7 |
| 20260508170945 | 12 | 267 | 4.8 | 8.0 | 0.00 | 0.00 | 0.00 | 74 | 1019.5 |
| 20260508170443 | 11 | 254 | 1.6 | 1.6 | 0.00 | 0.00 | 0.00 | 75 | 1019.8 |
| 20260508165939 | 11 | 171 | 22.5 | 25.7 | 0.00 | 0.00 | 0.00 | 75 | 1019.8 |
| 20260508165438 | 12 | 191 | 11.3 | 11.3 | 0.00 | 0.00 | 0.00 | 75 | 1019.4 |
| 20260508164933 | 12 | 157 | 8.0 | 12.9 | 0.00 | 0.00 | 0.00 | 74 | 1019.6 |
| 20260508164430 | 11 | 186 | 9.7 | 12.9 | 0.00 | 0.00 | 0.00 | 76 | 1019.4 |
| 20260508163927 | 11 | 179 | 16.1 | 17.7 | 0.00 | 0.00 | 0.00 | 76 | 1019.6 |
| 20260508163425 | 11 | 182 | 8.0 | 9.7 | 0.00 | 0.00 | 0.00 | 76 | 1019.5 |
| 20260508162920 | 11 | 188 | 9.7 | 12.9 | 0.00 | 0.00 | 0.00 | 77 | 1019.5 |
| 20260508162418 | 11 | 198 | 8.0 | 11.3 | 0.00 | 0.00 | 0.00 | 77 | 1019.4 |
| 20260508161914 | 11 | 205 | 12.9 | 16.1 | 0.00 | 0.00 | 0.00 | 76 | 1019.4 |
| 20260508161412 | 11 | 190 | 9.7 | 12.9 | 0.00 | 0.00 | 0.00 | 76 | 1019.3 |
| 20260508160909 | 11 | 142 | 8.0 | 11.3 | 0.00 | 0.00 | 0.00 | 77 | 1019.3 |
| 20260508160403 | 11 | 155 | 8.0 | 9.7 | 0.00 | 0.00 | 0.00 | 77 | 1019.4 |
| 20260508155858 | 11 | 185 | 17.7 | 22.5 | 0.00 | 0.00 | 0.00 | 77 | 1019.4 |
| 20260508155355 | 11 | 187 | 11.3 | 12.9 | 0.00 | 0.00 | 0.00 | 76 | 1019.2 |
| 20260508154852 | 11 | 199 | 17.7 | 17.7 | 0.00 | 0.00 | 0.00 | 77 | 1019.4 |
| 20260508154350 | 11 | 197 | 4.8 | 8.0 | 0.00 | 0.00 | 0.00 | 78 | 1019.3 |
| 20260508153846 | 11 | 188 | 8.0 | 11.3 | 0.00 | 0.00 | 0.00 | 79 | 1019.2 |
| 20260508153343 | 10 | 240 | 3.2 | 3.2 | 0.00 | 0.00 | 0.00 | 80 | 1019.5 |
| 20260508152839 | 10 | 190 | 19.3 | 24.1 | 0.00 | 0.00 | 0.00 | 80 | 1019.6 |
| 20260508152336 | 10 | 188 | 9.7 | 14.5 | 0.00 | 0.00 | 0.00 | 80 | 1019.4 |
| 20260508151832 | 11 | 175 | 14.5 | 17.7 | 0.00 | 0.00 | 0.00 | 79 | 1019.5 |
| 20260508151329 | 11 | 185 | 6.4 | 11.3 | 0.00 | 0.00 | 0.00 | 80 | 1019.5 |
| 20260508150826 | 11 | 195 | 6.4 | 11.3 | 0.00 | 0.00 | 0.00 | 80 | 1019.4 |
| 20260508150322 | 10 | 153 | 17.7 | 24.1 | 0.00 | 0.00 | 0.00 | 80 | 1019.2 |
| 20260508145818 | 10 | 202 | 11.3 | 12.9 | 0.00 | 0.00 | 0.00 | 81 | 1019.2 |
| 20260508145314 | 10 | 263 | 11.3 | 12.9 | 0.00 | 0.00 | 0.00 | 82 | 1019.2 |
| 20260508144812 | 10 | 209 | 9.7 | 16.1 | 0.00 | 0.00 | 0.00 | 83 | 1019.2 |
| 20260508144309 | 10 | 191 | 17.7 | 24.1 | 0.00 | 0.00 | 0.00 | 83 | 1018.9 |
| 20260508143801 | 10 | 251 | 12.9 | 20.9 | 0.00 | 0.00 | 0.00 | 83 | 1019.0 |
| 20260508143258 | 10 | 187 | 4.8 | 11.3 | 0.00 | 0.00 | 0.00 | 84 | 1018.8 |
| 20260508142755 | 10 | 191 | 4.8 | 8.0 | 0.00 | 0.00 | 0.00 | 84 | 1018.7 |
| 20260508142252 | 10 | 215 | 8.0 | 11.3 | 0.00 | 0.00 | 0.00 | 86 | 1018.6 |
| 20260508141748 | 10 | 178 | 8.0 | 11.3 | 0.00 | 0.00 | 0.00 | 86 | 1018.7 |
| 20260508141246 | 10 | 185 | 9.7 | 11.3 | 0.00 | 0.00 | 0.00 | 86 | 1018.7 |
| 20260508140743 | 10 | 196 | 11.3 | 14.5 | 0.00 | 0.00 | 0.00 | 86 | 1018.6 |
| 20260508140239 | 10 | 199 | 11.3 | 12.9 | 0.00 | 0.00 | 0.00 | 86 | 1018.2 |
| 20260508135735 | 10 | 186 | 6.4 | 8.0 | 0.00 | 0.00 | 0.00 | 86 | 1018.4 |
| 20260508135232 | 10 | 195 | 11.3 | 12.9 | 0.00 | 0.00 | 0.00 | 86 | 1018.1 |
| 20260508134727 | 10 | 190 | 11.3 | 11.3 | 0.00 | 0.00 | 0.00 | 85 | 1018.2 |
| 20260508134225 | 10 | 198 | 9.7 | 11.3 | 0.00 | 0.00 | 0.00 | 85 | 1018.0 |
| 20260508133721 | 10 | 201 | 4.8 | 4.8 | 0.00 | 0.00 | 0.00 | 85 | 1017.9 |
| 20260508133219 | 10 | 161 | 9.7 | 12.9 | 0.00 | 0.00 | 0.00 | 85 | 1017.5 |
| 20260508132717 | 10 | 180 | 8.0 | 9.7 | 0.00 | 0.00 | 0.00 | 85 | 1017.5 |
| 20260508132214 | 10 | 172 | 8.0 | 11.3 | 0.00 | 0.00 | 0.00 | 85 | 1017.7 |
| 20260508131709 | 10 | 199 | 4.8 | 4.8 | 0.00 | 0.00 | 0.00 | 85 | 1017.8 |
| 20260508131206 | 10 | 200 | 4.8 | 4.8 | 0.00 | 0.00 | 0.00 | 85 | 1017.6 |
| 20260508130703 | 10 | 199 | 4.8 | 8.0 | 0.00 | 0.00 | 0.00 | 85 | 1017.5 |
| 20260508130200 | 10 | 212 | 9.7 | 12.9 | 0.00 | 0.00 | 0.00 | 86 | 1017.5 |
| 20260508125655 | 10 | 156 | 1.6 | 1.6 | 0.00 | 0.00 | 0.00 | 86 | 1017.4 |
| 20260508125152 | 10 | 196 | 1.6 | 1.6 | 0.00 | 0.00 | 0.00 | 86 | 1017.3 |
| 20260508124650 | 10 | 220 | 3.2 | 3.2 | 0.00 | 0.00 | 0.00 | 87 | 1017.1 |
| 20260508124147 | 10 | 217 | 4.8 | 8.0 | 0.00 | 0.00 | 0.00 | 87 | 1017.2 |
| 20260508123646 | 10 | 206 | 6.4 | 9.7 | 0.00 | 0.00 | 0.00 | 87 | 1017.1 |
| 20260508123143 | 10 | 212 | 1.6 | 3.2 | 0.00 | 0.00 | 0.00 | 88 | 1017.1 |